createdAt,value
2018-06-18T00:00:23.581Z,64.80
2018-06-18T00:02:52.122Z,65.17
2018-06-18T00:05:20.625Z,65.99
2018-06-18T00:07:50.196Z,66.00
2018-06-18T00:10:18.648Z,65.34
2018-06-18T00:12:47.170Z,65.29
2018-06-18T00:15:15.683Z,65.62
2018-06-18T00:17:44.202Z,64.07
2018-06-18T00:20:12.687Z,64.68
2018-06-18T00:22:41.183Z,65.67
2018-06-18T00:25:09.666Z,65.12
2018-06-18T00:27:38.196Z,64.90
2018-06-18T00:30:06.656Z,64.46
2018-06-18T00:32:35.155Z,65.31
2018-06-18T00:35:03.665Z,65.11
2018-06-18T00:37:32.164Z,65.73
2018-06-18T00:40:00.625Z,64.76
2018-06-18T00:42:29.146Z,65.50
2018-06-18T00:44:57.621Z,64.55
2018-06-18T00:47:26.111Z,65.36
2018-06-18T00:49:54.567Z,65.56
2018-06-18T00:52:23.065Z,65.05
2018-06-18T00:54:51.524Z,64.87
2018-06-18T00:57:20.040Z,64.66
2018-06-18T00:59:48.506Z,64.28
2018-06-18T01:02:17.023Z,64.27
2018-06-18T01:04:45.492Z,65.05
2018-06-18T01:07:14.036Z,65.59
2018-06-18T01:09:42.505Z,65.80
2018-06-18T01:12:11.017Z,66.47
2018-06-18T01:14:40.000Z,66.65
2018-06-18T01:17:08.536Z,66.86
2018-06-18T01:19:37.001Z,66.76
2018-06-18T01:22:05.852Z,66.45
2018-06-18T01:24:41.584Z,65.78
2018-06-18T01:27:10.115Z,65.20
2018-06-18T01:29:38.694Z,65.86
2018-06-18T01:32:07.243Z,65.99
2018-06-18T01:34:35.768Z,66.39
2018-06-18T01:37:04.295Z,65.93
2018-06-18T01:39:32.758Z,66.02
2018-06-18T01:42:01.247Z,66.54
2018-06-18T01:44:29.722Z,67.02
2018-06-18T01:46:58.211Z,66.36
2018-06-18T01:49:26.648Z,66.39
2018-06-18T01:51:55.168Z,66.56
2018-06-18T01:54:23.620Z,66.59
2018-06-18T01:56:52.075Z,66.56
2018-06-18T01:59:20.629Z,66.86
2018-06-18T02:01:49.084Z,66.06
2018-06-18T02:04:17.577Z,66.80
2018-06-18T02:06:46.147Z,66.96
2018-06-18T02:09:14.631Z,67.21
2018-06-18T02:11:43.147Z,66.99
2018-06-18T02:14:12.064Z,67.72
2018-06-18T02:16:40.691Z,67.18
2018-06-18T02:19:09.396Z,67.26
2018-06-18T02:21:38.232Z,67.26
2018-06-18T02:24:06.748Z,67.20
2018-06-18T02:26:35.351Z,67.49
2018-06-18T02:29:09.088Z,68.33
2018-06-18T02:31:42.972Z,69.90
2018-06-18T02:34:16.639Z,68.76
2018-06-18T02:36:50.401Z,69.52
2018-06-18T02:39:19.233Z,68.47
2018-06-18T02:41:47.775Z,68.29
2018-06-18T02:44:16.248Z,68.63
2018-06-18T02:46:44.744Z,68.30
2018-06-18T02:49:13.185Z,68.17
2018-06-18T02:51:41.762Z,67.80
2018-06-18T02:54:10.472Z,67.00
2018-06-18T02:56:48.410Z,67.90
2018-06-18T02:59:17.200Z,68.25
2018-06-18T03:01:45.803Z,68.06
2018-06-18T03:04:14.319Z,67.78
2018-06-18T03:06:42.929Z,67.94
2018-06-18T03:09:12.657Z,67.92
2018-06-18T03:11:41.265Z,68.07
2018-06-18T03:14:10.294Z,67.24
2018-06-18T03:16:39.836Z,67.66
2018-06-18T03:19:13.740Z,67.66
2018-06-18T03:21:47.567Z,67.75
2018-06-18T03:24:21.319Z,68.20
2018-06-18T03:26:55.162Z,67.11
2018-06-18T03:29:25.877Z,66.51
2018-06-18T03:31:56.101Z,66.35
2018-06-18T03:34:24.585Z,66.50
2018-06-18T03:36:53.402Z,66.79
2018-06-18T03:39:21.940Z,66.38
2018-06-18T03:41:51.705Z,65.63
2018-06-18T03:44:29.291Z,64.95
2018-06-18T03:46:59.863Z,64.76
2018-06-18T03:49:28.425Z,64.73
2018-06-18T03:51:56.918Z,65.21
2018-06-18T03:54:25.387Z,65.30
2018-06-18T03:56:53.886Z,64.39
2018-06-18T03:59:22.335Z,63.37
2018-06-18T04:03:00.989Z,63.36
2018-06-18T04:05:35.061Z,63.95
2018-06-18T04:08:09.262Z,63.97
2018-06-18T04:10:43.492Z,64.84
2018-06-18T04:13:11.999Z,65.14
2018-06-18T04:15:40.453Z,64.93
2018-06-18T04:18:08.949Z,64.51
2018-06-18T04:20:44.344Z,66.43
2018-06-18T04:23:12.876Z,67.25
2018-06-18T04:25:41.363Z,66.86
2018-06-18T04:28:09.916Z,66.72
2018-06-18T04:30:38.451Z,66.26
2018-06-18T04:33:07.445Z,65.16
2018-06-18T04:35:35.961Z,65.33
2018-06-18T04:38:04.529Z,64.90
2018-06-18T04:40:33.454Z,64.94
2018-06-18T04:43:07.139Z,64.62
2018-06-18T04:45:40.896Z,66.37
2018-06-18T04:48:14.658Z,64.25
2018-06-18T04:51:01.258Z,63.86
2018-06-18T04:53:30.184Z,63.19
2018-06-18T04:55:58.681Z,62.01
2018-06-18T04:58:27.201Z,62.04
2018-06-18T05:01:04.086Z,62.93
2018-06-18T05:03:32.616Z,63.48
2018-06-18T05:06:01.137Z,62.61
2018-06-18T05:10:39.687Z,62.47
2018-06-18T05:13:08.205Z,62.93
2018-06-18T05:15:38.935Z,62.77
2018-06-18T05:18:07.509Z,61.67
2018-06-18T05:20:36.406Z,61.77
2018-06-18T05:23:09.061Z,61.52
2018-06-18T05:25:37.567Z,62.82
2018-06-18T05:28:06.236Z,62.92
2018-06-18T05:30:34.746Z,62.25
2018-06-18T05:33:03.212Z,61.60
2018-06-18T05:35:31.710Z,60.40
2018-06-18T05:38:07.839Z,60.15
2018-06-18T05:40:36.455Z,60.87
2018-06-18T05:43:04.968Z,60.12
2018-06-18T05:45:33.471Z,58.90
2018-06-18T05:48:03.453Z,57.40
2018-06-18T05:50:32.055Z,57.24
2018-06-18T05:53:00.527Z,57.12
2018-06-18T05:55:29.066Z,56.69
2018-06-18T05:57:57.556Z,54.46
2018-06-18T06:00:26.123Z,56.04
2018-06-18T06:02:54.567Z,57.78
2018-06-18T06:05:23.080Z,56.49
2018-06-18T06:07:51.881Z,55.91
2018-06-18T06:10:20.388Z,55.50
2018-06-18T06:12:48.895Z,54.41
2018-06-18T06:15:17.399Z,54.02
2018-06-18T06:17:45.885Z,54.31
2018-06-18T06:20:14.432Z,53.71
2018-06-18T06:22:42.940Z,52.65
2018-06-18T06:25:11.569Z,52.29
2018-06-18T06:27:40.081Z,53.21
2018-06-18T06:30:08.609Z,52.71
2018-06-18T06:32:37.112Z,52.54
2018-06-18T06:35:24.019Z,55.01
2018-06-18T06:37:52.603Z,53.36
2018-06-18T06:40:21.144Z,53.77
2018-06-18T06:42:49.617Z,55.21
2018-06-18T06:45:19.179Z,52.82
2018-06-18T06:47:47.661Z,52.45
2018-06-18T06:50:16.207Z,53.49
2018-06-18T06:52:45.168Z,53.11
2018-06-18T06:55:13.673Z,50.93
2018-06-18T06:57:42.140Z,53.03
2018-06-18T07:00:10.668Z,52.67
2018-06-18T07:02:39.257Z,53.56
2018-06-18T07:05:08.041Z,53.15
2018-06-18T07:07:36.543Z,53.55
2018-06-18T07:10:05.211Z,51.88
2018-06-18T07:12:33.672Z,51.61
2018-06-18T07:15:02.153Z,52.79
2018-06-18T07:17:30.721Z,53.10
2018-06-18T07:19:59.202Z,53.61
2018-06-18T07:22:27.821Z,52.73
2018-06-18T07:24:56.329Z,52.46
2018-06-18T07:27:24.906Z,51.19
2018-06-18T07:29:53.511Z,51.48
2018-06-18T07:32:22.156Z,51.12
2018-06-18T07:34:50.751Z,52.09
2018-06-18T07:37:19.432Z,52.23
2018-06-18T07:39:48.361Z,51.12
2018-06-18T07:42:16.988Z,51.28
2018-06-18T07:44:45.734Z,49.86
2018-06-18T07:47:14.489Z,50.64
2018-06-18T07:49:43.056Z,50.12
2018-06-18T07:52:11.626Z,48.21
2018-06-18T07:54:40.212Z,47.71
2018-06-18T07:57:08.879Z,47.79
2018-06-18T07:59:37.649Z,48.30
2018-06-18T08:02:06.261Z,48.73
2018-06-18T08:04:34.807Z,48.99
2018-06-18T08:07:03.401Z,50.38
2018-06-18T08:09:31.963Z,50.77
2018-06-18T08:12:01.856Z,51.05
2018-06-18T08:14:30.354Z,51.04
2018-06-18T08:16:58.927Z,50.60
2018-06-18T08:19:27.508Z,51.68
2018-06-18T08:21:56.064Z,51.49
2018-06-18T08:24:24.645Z,52.02
2018-06-18T08:26:53.426Z,52.06
2018-06-18T08:29:22.008Z,50.83
2018-06-18T08:31:50.670Z,50.53
2018-06-18T08:34:19.323Z,50.43
2018-06-18T08:36:47.906Z,48.66
2018-06-18T08:39:16.496Z,48.96
2018-06-18T08:41:45.207Z,49.41
2018-06-18T08:44:13.825Z,49.84
2018-06-18T08:46:42.483Z,49.47
2018-06-18T08:49:11.152Z,48.49
2018-06-18T08:51:45.938Z,48.00
2018-06-18T08:54:19.812Z,48.44
2018-06-18T08:56:54.782Z,48.64
2018-06-18T08:59:28.613Z,48.69
2018-06-18T09:01:57.269Z,48.30
2018-06-18T09:04:31.212Z,49.21
2018-06-18T09:07:03.229Z,49.30
2018-06-18T09:09:31.924Z,49.38
2018-06-18T09:12:00.552Z,49.24
2018-06-18T09:14:29.149Z,49.49
2018-06-18T09:16:57.836Z,48.40
2018-06-18T09:19:26.442Z,48.64
2018-06-18T09:21:55.146Z,46.58
2018-06-18T09:24:32.012Z,46.27
2018-06-18T09:27:05.763Z,45.99
2018-06-18T09:29:34.746Z,46.31
2018-06-18T09:32:03.427Z,47.36
2018-06-18T09:34:32.086Z,45.89
2018-06-18T09:37:00.736Z,44.08
2018-06-18T09:39:29.283Z,45.99
2018-06-18T09:41:57.856Z,45.20
2018-06-18T09:44:26.497Z,44.86
2018-06-18T09:46:54.958Z,46.02
2018-06-18T09:49:28.720Z,46.00
2018-06-18T09:52:02.476Z,45.40
2018-06-18T09:54:36.335Z,45.08
2018-06-18T09:57:15.487Z,45.92
2018-06-18T09:59:49.369Z,46.58
2018-06-18T10:02:17.976Z,45.79
2018-06-18T10:04:46.475Z,45.97
2018-06-18T10:07:15.053Z,47.08
2018-06-18T10:09:43.610Z,46.55
2018-06-18T10:12:12.102Z,46.27
2018-06-18T10:14:40.653Z,46.10
2018-06-18T10:17:09.228Z,47.29
2018-06-18T10:19:37.844Z,47.24
2018-06-18T10:22:06.362Z,45.37
2018-06-18T10:24:34.982Z,42.47
2018-06-18T10:27:03.457Z,42.93
2018-06-18T10:29:31.972Z,43.84
2018-06-18T10:32:00.456Z,44.77
2018-06-18T10:34:34.055Z,44.36
2018-06-18T10:37:07.860Z,43.17
2018-06-18T10:39:41.592Z,43.07
2018-06-18T10:42:15.348Z,41.55
2018-06-18T10:44:43.974Z,42.20
2018-06-18T10:47:12.424Z,40.70
2018-06-18T10:49:41.057Z,41.65
2018-06-18T10:52:09.592Z,42.39
2018-06-18T10:54:38.055Z,43.66
2018-06-18T10:57:06.584Z,44.53
2018-06-18T10:59:35.063Z,43.89
2018-06-18T11:02:03.660Z,43.58
2018-06-18T11:04:32.478Z,46.03
2018-06-18T11:07:02.046Z,44.86
2018-06-18T11:09:30.655Z,42.20
2018-06-18T11:11:59.191Z,42.05
2018-06-18T11:14:27.670Z,42.21
2018-06-18T11:17:01.721Z,42.76
2018-06-18T11:19:35.145Z,41.90
2018-06-18T11:22:03.912Z,42.88
2018-06-18T11:25:36.295Z,43.57
2018-06-18T11:28:04.928Z,44.77
2018-06-18T11:30:34.161Z,42.60
2018-06-18T11:33:02.648Z,41.28
2018-06-18T11:35:34.246Z,42.19
2018-06-18T11:38:02.763Z,42.91
2018-06-18T11:40:31.394Z,41.32
2018-06-18T11:42:59.915Z,42.61
2018-06-18T11:45:28.440Z,42.26
2018-06-18T11:48:09.222Z,44.47
2018-06-18T11:50:38.175Z,44.38
2018-06-18T11:53:06.855Z,44.85
2018-06-18T11:55:36.090Z,44.40
2018-06-18T11:58:05.192Z,45.20
2018-06-18T12:00:39.263Z,45.83
2018-06-18T12:03:13.110Z,44.42
2018-06-18T12:05:47.055Z,44.67
2018-06-18T12:08:21.160Z,42.41
2018-06-18T12:10:50.875Z,41.18
2018-06-18T12:13:19.510Z,41.54
2018-06-18T12:15:48.194Z,42.59
2018-06-18T12:18:16.844Z,42.39
2018-06-18T12:20:45.756Z,41.94
2018-06-18T12:23:14.367Z,42.59
2018-06-18T12:25:44.273Z,42.64
2018-06-18T12:28:13.030Z,40.54
2018-06-18T12:30:41.683Z,41.13
2018-06-18T12:33:14.264Z,42.50
2018-06-18T12:35:42.855Z,41.49
2018-06-18T12:38:11.492Z,43.50
2018-06-18T12:40:40.086Z,43.07
2018-06-18T12:43:09.215Z,42.81
2018-06-18T12:45:43.131Z,43.06
2018-06-18T12:48:19.114Z,43.92
2018-06-18T12:50:53.099Z,43.25
2018-06-18T12:53:27.062Z,42.90
2018-06-18T12:56:00.937Z,43.15
2018-06-18T12:58:29.594Z,42.77
2018-06-18T13:00:58.207Z,42.33
2018-06-18T13:03:26.945Z,43.10
2018-06-18T13:05:55.661Z,42.08
2018-06-18T13:08:24.387Z,42.33
2018-06-18T13:10:53.000Z,42.53
2018-06-18T13:13:21.624Z,42.18
2018-06-18T13:15:50.176Z,43.15
2018-06-18T13:18:18.852Z,42.17
2018-06-18T13:20:47.900Z,42.23
2018-06-18T13:23:16.553Z,42.89
2018-06-18T13:25:46.057Z,42.09
2018-06-18T13:28:16.182Z,43.29
2018-06-18T13:30:45.314Z,43.06
2018-06-18T13:33:13.959Z,44.61
2018-06-18T13:35:42.635Z,43.36
2018-06-18T13:38:16.587Z,43.74
2018-06-18T13:40:50.459Z,44.13
2018-06-18T13:43:24.410Z,43.59
2018-06-18T13:45:58.311Z,45.36
2018-06-18T13:48:32.345Z,45.22
2018-06-18T13:51:01.003Z,43.68
2018-06-18T13:53:29.610Z,45.04
2018-06-18T13:55:58.200Z,44.42
2018-06-18T13:58:26.910Z,44.85
2018-06-18T14:00:55.499Z,45.23
2018-06-18T14:03:24.160Z,45.15
2018-06-18T14:05:52.727Z,44.86
2018-06-18T14:08:21.426Z,46.25
2018-06-18T14:10:50.022Z,45.24
2018-06-18T14:13:18.653Z,44.98
2018-06-18T14:15:47.263Z,44.78
2018-06-18T14:18:16.949Z,43.58
2018-06-18T14:20:45.559Z,45.10
2018-06-18T14:23:14.161Z,45.65
2018-06-18T14:25:42.854Z,45.25
2018-06-18T14:28:11.522Z,45.91
2018-06-18T14:30:45.485Z,45.93
2018-06-18T14:33:19.347Z,45.39
2018-06-18T14:35:53.308Z,46.53
2018-06-18T14:38:27.295Z,46.58
2018-06-18T14:40:56.103Z,45.92
2018-06-18T14:43:24.836Z,46.77
2018-06-18T14:45:53.506Z,47.46
2018-06-18T14:48:26.486Z,47.84
2018-06-18T14:50:56.183Z,48.29
2018-06-18T14:53:24.770Z,47.99
2018-06-18T14:56:02.112Z,47.66
2018-06-18T14:58:30.747Z,47.80
2018-06-18T15:00:59.804Z,47.64
2018-06-18T15:03:28.462Z,47.23
2018-06-18T15:05:57.322Z,47.89
2018-06-18T15:08:27.048Z,47.62
2018-06-18T15:10:55.684Z,47.58
2018-06-18T15:13:24.321Z,47.01
2018-06-18T15:15:58.112Z,46.67
2018-06-18T15:18:26.728Z,46.17
2018-06-18T15:20:58.361Z,46.79
2018-06-18T15:23:27.178Z,46.89
2018-06-18T15:25:56.161Z,46.22
2018-06-18T15:28:24.758Z,47.80
2018-06-18T15:30:53.434Z,47.41
2018-06-18T15:33:22.512Z,46.34
2018-06-18T15:35:51.107Z,46.60
2018-06-18T15:38:19.919Z,47.61
2018-06-18T15:40:48.420Z,47.72
2018-06-18T15:43:17.749Z,47.46
2018-06-18T15:45:46.241Z,46.30
2018-06-18T15:48:14.756Z,46.71
2018-06-18T15:50:43.281Z,46.00
2018-06-18T15:53:11.769Z,46.95
2018-06-18T15:55:40.273Z,47.04
2018-06-18T15:58:08.764Z,47.80
2018-06-18T16:00:40.396Z,47.21
2018-06-18T16:03:08.903Z,47.79
2018-06-18T16:05:37.640Z,46.40
2018-06-18T16:08:06.204Z,46.20
2018-06-18T16:10:34.919Z,46.46
2018-06-18T16:13:03.376Z,46.70
2018-06-18T16:15:31.877Z,46.53
2018-06-18T16:18:00.389Z,46.94
2018-06-18T16:20:28.913Z,46.67
2018-06-18T16:23:03.879Z,45.76
2018-06-18T16:25:32.372Z,46.30
2018-06-18T16:28:01.835Z,45.72
2018-06-18T16:30:30.368Z,46.29
2018-06-18T16:32:58.828Z,45.61
2018-06-18T16:35:27.327Z,46.00
2018-06-18T16:37:55.793Z,45.35
2018-06-18T16:40:28.868Z,46.77
2018-06-18T16:42:58.589Z,46.38
2018-06-18T16:45:27.027Z,46.69
2018-06-18T16:47:55.508Z,47.32
2018-06-18T16:50:23.980Z,45.89
2018-06-18T16:52:52.526Z,45.43
2018-06-18T16:55:21.105Z,45.28
2018-06-18T16:57:49.620Z,46.60
2018-06-18T17:00:18.144Z,45.83
2018-06-18T17:02:46.759Z,46.00
2018-06-18T17:05:15.194Z,45.49
2018-06-18T17:07:43.703Z,46.61
2018-06-18T17:10:12.209Z,45.93
2018-06-18T17:12:41.705Z,45.88
2018-06-18T17:15:10.169Z,46.68
2018-06-18T17:17:38.733Z,47.17
2018-06-18T17:20:07.276Z,47.62
2018-06-18T17:22:35.897Z,47.31
2018-06-18T17:25:04.387Z,47.64
2018-06-18T17:27:32.960Z,46.38
2018-06-18T17:30:01.485Z,47.46
2018-06-18T17:32:30.179Z,48.30
2018-06-18T17:34:58.696Z,48.21
2018-06-18T17:37:27.245Z,48.44
2018-06-18T17:39:55.911Z,48.42
2018-06-18T17:42:24.413Z,47.86
2018-06-18T17:44:52.922Z,48.12
2018-06-18T17:47:29.839Z,47.81
2018-06-18T17:49:58.962Z,47.87
2018-06-18T17:52:27.439Z,48.20
2018-06-18T17:54:55.903Z,48.69
2018-06-18T17:57:24.414Z,47.58
2018-06-18T17:59:53.176Z,47.97
2018-06-18T18:02:21.676Z,48.58
2018-06-18T18:04:50.178Z,50.08
2018-06-18T18:07:18.700Z,49.06
2018-06-18T18:09:47.209Z,49.28
2018-06-18T18:12:15.720Z,48.99
2018-06-18T18:14:44.236Z,49.84
2018-06-18T18:17:12.860Z,50.09
2018-06-18T18:19:41.355Z,50.28
2018-06-18T18:22:10.888Z,49.65
2018-06-18T18:24:39.784Z,50.05
2018-06-18T18:27:08.343Z,50.71
2018-06-18T18:29:36.846Z,50.38
2018-06-18T18:32:05.384Z,51.07
2018-06-18T18:34:36.911Z,51.13
2018-06-18T18:37:09.885Z,50.97
2018-06-18T18:39:38.317Z,51.13
2018-06-18T18:42:10.952Z,51.11
2018-06-18T18:44:39.437Z,50.45
2018-06-18T18:47:07.959Z,50.59
2018-06-18T18:49:36.425Z,49.68
2018-06-18T18:52:04.984Z,50.51
2018-06-18T18:55:47.863Z,51.63
2018-06-18T18:58:27.530Z,53.12
2018-06-18T19:00:55.991Z,52.70
2018-06-18T19:03:28.312Z,53.06
2018-06-18T19:05:58.309Z,53.34
2018-06-18T19:08:29.155Z,52.79
2018-06-18T19:11:00.348Z,53.45
2018-06-18T19:13:31.277Z,53.60
2018-06-18T19:16:00.259Z,53.51
2018-06-18T19:18:34.519Z,52.94
2018-06-18T19:21:07.177Z,54.38
2018-06-18T19:23:35.805Z,53.49
2018-06-18T19:26:04.351Z,53.75
2018-06-18T19:28:33.165Z,54.40
2018-06-18T19:31:18.001Z,53.76
2018-06-18T19:34:08.558Z,53.49
2018-06-18T19:36:39.948Z,52.93
2018-06-18T19:39:11.841Z,54.00
2018-06-18T19:41:40.618Z,55.26
2018-06-18T19:44:09.410Z,54.99
2018-06-18T19:47:01.154Z,54.45
2018-06-18T19:49:29.908Z,54.37
2018-06-18T19:51:58.587Z,54.91
2018-06-18T19:54:30.437Z,54.21
2018-06-18T19:56:58.960Z,55.41
2018-06-18T19:59:27.634Z,54.97
2018-06-18T20:01:56.114Z,55.88
2018-06-18T20:04:24.618Z,54.96
2018-06-18T20:06:53.091Z,55.05
2018-06-18T20:09:22.048Z,56.15
2018-06-18T20:11:50.555Z,56.42
2018-06-18T20:14:19.123Z,55.81
2018-06-18T20:16:47.984Z,55.80
2018-06-18T20:19:16.560Z,55.68
2018-06-18T20:21:45.591Z,55.66
2018-06-18T20:24:14.139Z,56.03
2018-06-18T20:26:42.605Z,56.10
2018-06-18T20:29:11.157Z,55.46
2018-06-18T20:31:40.657Z,55.78
2018-06-18T20:34:09.306Z,55.94
2018-06-18T20:36:37.761Z,57.45
2018-06-18T20:39:09.179Z,56.67
2018-06-18T20:41:39.634Z,56.72
2018-06-18T20:44:20.972Z,56.19
2018-06-18T20:46:49.610Z,55.39
2018-06-18T20:49:18.867Z,55.36
2018-06-18T20:51:48.179Z,55.91
2018-06-18T20:54:16.895Z,55.69
2018-06-18T20:56:45.538Z,55.94
2018-06-18T20:59:14.715Z,54.90
2018-06-18T21:01:44.236Z,54.24
2018-06-18T21:04:12.721Z,54.92
2018-06-18T21:06:43.316Z,54.77
2018-06-18T21:09:12.417Z,54.16
2018-06-18T21:11:41.061Z,53.88
2018-06-18T21:14:10.796Z,54.39
2018-06-18T21:16:41.560Z,55.09
2018-06-18T21:19:10.081Z,54.43
2018-06-18T21:21:38.656Z,54.57
2018-06-18T21:24:07.237Z,55.07
2018-06-18T21:26:35.769Z,54.99
2018-06-18T21:29:04.456Z,55.14
2018-06-18T21:31:32.961Z,55.60
2018-06-18T21:34:01.448Z,56.33
2018-06-18T21:36:29.988Z,55.72
2018-06-18T21:38:58.471Z,55.89
2018-06-18T21:41:26.987Z,55.37
2018-06-18T21:43:56.492Z,56.35
2018-06-18T21:46:25.079Z,57.14
2018-06-18T21:48:53.552Z,57.52
2018-06-18T21:51:22.508Z,57.22
2018-06-18T21:53:50.973Z,56.05
2018-06-18T21:56:19.480Z,56.10
2018-06-18T21:58:47.941Z,56.33
2018-06-18T22:01:26.405Z,56.30
2018-06-18T22:03:54.901Z,58.01
2018-06-18T22:06:23.420Z,58.19
2018-06-18T22:08:51.952Z,57.48
2018-06-18T22:11:20.431Z,56.22
2018-06-18T22:13:48.951Z,56.50
2018-06-18T22:16:17.426Z,55.77
2018-06-18T22:18:45.955Z,56.16
2018-06-18T22:21:14.420Z,56.60
2018-06-18T22:23:42.935Z,56.42
2018-06-18T22:26:11.477Z,56.48
2018-06-18T22:28:41.492Z,56.09
2018-06-18T22:31:09.990Z,55.63
2018-06-18T22:33:38.523Z,55.82
2018-06-18T22:36:07.000Z,55.63
2018-06-18T22:38:35.524Z,57.26
2018-06-18T22:41:04.084Z,56.88
2018-06-18T22:43:33.107Z,56.71
2018-06-18T22:46:01.633Z,58.26
2018-06-18T22:48:30.752Z,57.70
2018-06-18T22:50:59.305Z,57.42
2018-06-18T22:53:27.821Z,57.04
2018-06-18T22:55:56.280Z,57.88
2018-06-18T22:58:24.787Z,58.72
2018-06-18T23:00:55.292Z,59.02
2018-06-18T23:03:23.873Z,59.60
2018-06-18T23:08:48.583Z,60.26
2018-06-18T23:11:17.319Z,60.17
2018-06-18T23:13:46.100Z,60.54
2018-06-18T23:16:14.831Z,61.10
2018-06-18T23:18:43.625Z,61.73
2018-06-18T23:21:12.336Z,61.24
2018-06-18T23:23:41.197Z,61.92
2018-06-18T23:26:09.939Z,62.98
2018-06-18T23:28:43.233Z,62.75
2018-06-18T23:31:11.961Z,62.26
2018-06-18T23:33:40.678Z,61.48
2018-06-18T23:36:09.428Z,62.01
2018-06-18T23:38:38.229Z,61.75
2018-06-18T23:41:07.179Z,61.42
2018-06-18T23:43:35.879Z,60.92
2018-06-18T23:46:04.932Z,59.80
2018-06-18T23:48:33.671Z,59.38
2018-06-18T23:51:02.412Z,60.31
2018-06-18T23:53:31.119Z,59.80
2018-06-18T23:55:59.968Z,59.33
2018-06-18T23:58:28.969Z,59.75
